Terminal Aerodrome Forecast
Issued by NWS

Home | Current Version | Previous Version | Graphics & Text | Print | Product List | Glossary On
Versions: 1 2 3 4 5 6 7 8 9 10 11 12 13
245
FTUS43 KICT 131740
TAFCNU
TAF
KCNU 131740Z 1318/1418 11009KT P6SM OVC200
     FM132000 10013KT P6SM BKN060
     FM140000 09007KT P6SM BKN060=

USA.gov is the U.S. government's official web portal to all federal, state and local government web resources and services.